Time;durP1;ratioP1;P1;durP2;ratioP2;P2;SDS_P1;SDS_P2;PMS_P1;PMS_P2;Temp;Humidity;BMP_temperature;BMP_pressure;BME280_temperature;BME280_humidity;BME280_pressure;Samples;Min_cycle;Max_cycle;Signal;HPM_P1;HPM_P2
2022/01/18 00:01:21;;;;;;;63.17;10.17;;;;;;;;;;4925915;29;20455;-79
2022/01/18 00:03:47;;;;;;;55.00;9.75;;;;;;;;;;4908546;29;20563;-78
2022/01/18 00:06:13;;;;;;;67.80;9.73;;;;;;;;;;4924591;29;20427;-77
2022/01/18 00:08:40;;;;;;;58.53;9.50;;;;;;;;;;4918684;29;20436;-78
2022/01/18 00:11:07;;;;;;;64.17;9.87;;;;;;;;;;4926498;29;20439;-79
2022/01/18 00:18:34;;;;;;;57.83;9.80;;;;;;;;;;4942097;29;20447;-79
2022/01/18 00:23:34;;;;;;;62.75;10.80;;;;;;;;;;4939886;29;20489;-79
2022/01/18 00:26:00;;;;;;;52.22;9.40;;;;;;;;;;4926050;29;20435;-79
2022/01/18 00:28:28;;;;;;;62.10;9.38;;;;;;;;;;4925580;29;20491;-79
2022/01/18 00:33:59;;;;;;;65.13;10.18;;;;;;;;;;4940615;29;20433;-79
2022/01/18 00:36:36;;;;;;;76.47;10.63;;;;;;;;;;4937907;29;20472;-78
2022/01/18 00:39:03;;;;;;;72.20;11.38;;;;;;;;;;4916517;29;20425;-78
2022/01/18 00:41:29;;;;;;;71.80;12.30;;;;;;;;;;4938964;29;20431;-78
2022/01/18 00:43:56;;;;;;;80.32;11.93;;;;;;;;;;4894697;29;20908;-78
2022/01/18 00:46:23;;;;;;;81.43;11.60;;;;;;;;;;4918229;29;20494;-78
2022/01/18 00:48:52;;;;;;;74.90;11.50;;;;;;;;;;4917205;29;20427;-78
2022/01/18 00:51:18;;;;;;;84.93;12.88;;;;;;;;;;4922846;29;20450;-78
2022/01/18 00:53:45;;;;;;;79.20;11.70;;;;;;;;;;4917169;29;20514;-78
2022/01/18 00:58:39;;;;;;;86.20;12.13;;;;;;;;;;4939912;29;20555;-79
2022/01/18 01:01:05;;;;;;;83.70;11.30;;;;;;;;;;4906045;29;20456;-79
2022/01/18 01:03:31;;;;;;;82.32;12.63;;;;;;;;;;4908583;29;20439;-79
2022/01/18 01:05:58;;;;;;;85.67;12.27;;;;;;;;;;4919973;29;20439;-79
2022/01/18 01:08:24;;;;;;;92.07;12.85;;;;;;;;;;4924681;29;20443;-79
2022/01/18 01:10:50;;;;;;;81.15;11.80;;;;;;;;;;4939943;29;20427;-79
2022/01/18 01:13:16;;;;;;;82.28;12.20;;;;;;;;;;4901889;29;20436;-79
2022/01/18 01:19:44;;;;;;;101.32;13.02;;;;;;;;;;4837103;29;20553;-79
2022/01/18 01:35:30;;;;;;;87.25;12.85;;;;;;;;;;4939826;29;20428;-78
2022/01/18 01:44:02;;;;;;;78.80;11.30;;;;;;;;;;4898390;29;20442;-79
2022/01/18 01:46:29;;;;;;;75.25;11.52;;;;;;;;;;4895514;29;20439;-77
2022/01/18 01:48:57;;;;;;;87.18;12.45;;;;;;;;;;4923831;29;20528;-79
2022/01/18 01:51:30;;;;;;;84.97;11.50;;;;;;;;;;4923036;29;20439;-79
2022/01/18 01:53:57;;;;;;;80.68;12.00;;;;;;;;;;4931033;29;20440;-79
2022/01/18 01:56:23;;;;;;;88.30;11.70;;;;;;;;;;4929587;29;21079;-79
2022/01/18 01:58:49;;;;;;;77.22;11.77;;;;;;;;;;4916742;29;20459;-78
2022/01/18 02:01:16;;;;;;;68.70;11.10;;;;;;;;;;4921896;29;20431;-79
2022/01/18 02:03:42;;;;;;;61.45;10.15;;;;;;;;;;4906335;29;20423;-79
2022/01/18 02:06:09;;;;;;;60.80;10.02;;;;;;;;;;4900951;29;20441;-78
2022/01/18 02:08:35;;;;;;;64.22;9.02;;;;;;;;;;4946150;28;20500;-78
2022/01/18 02:11:01;;;;;;;58.17;9.55;;;;;;;;;;4923854;29;20911;-79
2022/01/18 02:13:27;;;;;;;50.80;9.23;;;;;;;;;;4901160;29;20440;-78
2022/01/18 02:16:14;;;;;;;49.33;9.15;;;;;;;;;;4904121;29;20443;-78
2022/01/18 02:24:10;;;;;;;49.50;8.65;;;;;;;;;;4924544;29;20428;-79
2022/01/18 02:26:37;;;;;;;48.42;7.68;;;;;;;;;;4936554;29;20439;-79
2022/01/18 02:29:05;;;;;;;51.42;8.10;;;6.60;99.90;;;;;;4938434;29;20519;-78
2022/01/18 02:31:31;;;;;;;46.40;7.67;;;;;;;;;;4903024;29;20923;-78
2022/01/18 02:34:10;;;;;;;41.38;7.35;;;6.40;99.90;;;;;;4914978;29;21938;-79
2022/01/18 02:36:37;;;;;;;38.70;7.47;;;;;;;;;;4920268;29;20913;-79
2022/01/18 02:39:04;;;;;;;41.17;7.22;;;;;;;;;;4908865;29;20451;-78
2022/01/18 02:41:31;;;;;;;37.78;6.72;;;;;;;;;;4922690;29;20436;-78
2022/01/18 02:44:23;;;;;;;41.33;6.57;;;;;;;;;;4922340;29;20520;-78
2022/01/18 02:46:50;;;;;;;42.28;6.78;;;;;;;;;;4915620;29;20444;-77
2022/01/18 02:49:16;;;;;;;39.42;7.20;;;;;;;;;;4923306;29;20435;-78
2022/01/18 02:51:42;;;;;;;39.83;7.00;;;;;;;;;;4922003;29;20459;-78
2022/01/18 02:54:09;;;;;;;33.80;6.68;;;;;;;;;;4914550;29;20958;-78
2022/01/18 02:56:42;;;;;;;39.22;7.10;;;;;;;;;;4921561;29;20443;-78
2022/01/18 03:04:22;;;;;;;44.20;6.95;;;;;;;;;;4925517;29;20432;-78
2022/01/18 03:06:48;;;;;;;40.30;6.53;;;;;;;;;;4921570;29;20435;-79
2022/01/18 03:09:14;;;;;;;40.05;6.60;;;;;;;;;;4930784;29;20453;-78
2022/01/18 03:11:40;;;;;;;37.50;6.70;;;;;;;;;;4913987;29;20450;-78
2022/01/18 03:14:07;;;;;;;42.45;6.68;;;;;;;;;;4904504;29;20427;-78
2022/01/18 03:16:33;;;;;;;41.85;6.63;;;;;;;;;;4900283;29;20441;-78
2022/01/18 03:18:59;;;;;;;36.10;6.63;;;;;;;;;;4917509;29;20491;-78
2022/01/18 03:21:25;;;;;;;43.85;8.27;;;;;;;;;;4922549;29;20442;-79
2022/01/18 03:23:59;;;;;;;37.35;5.95;;;;;;;;;;4913003;29;20434;-78
2022/01/18 03:26:32;;;;;;;37.15;6.18;;;;;;;;;;4923467;29;20443;-79
2022/01/18 03:28:58;;;;;;;36.03;6.55;;;;;;;;;;4905397;29;20437;-78
2022/01/18 03:31:24;;;;;;;41.47;6.88;;;;;;;;;;4937831;29;20473;-79
2022/01/18 03:33:51;;;;;;;38.78;6.45;;;;;;;;;;4906539;29;20611;-79
2022/01/18 03:36:17;;;;;;;37.25;6.88;;;;;;;;;;4907291;29;20448;-79
2022/01/18 03:38:43;;;;;;;39.65;6.22;;;;;;;;;;4926197;29;20439;-78
2022/01/18 03:41:09;;;;;;;40.33;6.13;;;;;;;;;;4906876;29;20889;-79
2022/01/18 03:43:37;;;;;;;36.22;5.65;;;;;;;;;;4924970;29;20462;-78
2022/01/18 03:46:05;;;;;;;34.25;6.35;;;;;;;;;;4909784;29;20443;-78
2022/01/18 03:48:34;;;;;;;32.75;6.00;;;;;;;;;;4925881;29;20435;-78
2022/01/18 03:51:01;;;;;;;33.40;5.90;;;;;;;;;;4909669;29;20440;-78
2022/01/18 03:53:28;;;;;;;28.90;5.63;;;;;;;;;;4941607;29;20499;-78
2022/01/18 03:55:54;;;;;;;31.52;6.03;;;;;;;;;;4931938;29;20436;-78
2022/01/18 03:58:20;;;;;;;34.67;6.47;;;;;;;;;;4925980;29;20475;-78
2022/01/18 04:00:47;;;;;;;32.00;6.00;;;;;;;;;;4899532;29;20437;-78
2022/01/18 04:03:13;;;;;;;30.85;5.88;;;;;;;;;;4938194;29;20486;-78
2022/01/18 04:05:40;;;;;;;29.87;5.83;;;;;;;;;;4922426;29;20493;-78
2022/01/18 04:08:06;;;;;;;31.60;5.97;;;;;;;;;;4910673;29;20446;-78
2022/01/18 04:10:32;;;;;;;31.70;5.40;;;;;;;;;;4926184;29;20431;-78
2022/01/18 04:12:59;;;;;;;29.50;5.80;;;;;;;;;;4899347;29;20436;-78
2022/01/18 04:15:25;;;;;;;31.08;5.78;;;;;;;;;;4908876;29;20487;-78
2022/01/18 04:26:05;;;;;;;25.05;5.40;;;6.70;99.90;;;;;;4936762;29;20435;-79
2022/01/18 04:28:42;;;;;;;25.73;5.00;;;6.70;99.90;;;;;;4908476;29;20440;-79
2022/01/18 04:31:09;;;;;;;27.23;5.20;;;;;;;;;;4922958;29;20498;-79
2022/01/18 04:33:36;;;;;;;22.67;4.63;;;;;;;;;;4907193;29;20496;-78
2022/01/18 04:36:04;;;;;;;26.77;6.22;;;6.70;99.90;;;;;;4923496;29;20463;-78
2022/01/18 04:38:30;;;;;;;23.42;4.95;;;;;;;;;;4924065;29;20433;-78
2022/01/18 04:41:05;;;;;;;25.60;5.30;;;;;;;;;;4923119;29;20438;-78
2022/01/18 04:48:24;;;;;;;26.60;5.20;;;;;;;;;;4920965;29;20432;-79
2022/01/18 04:49:14;;;;;;;24.65;5.50;;;;;;;;;;4941179;29;20431;-79
2022/01/18 04:51:41;;;;;;;25.97;7.07;;;;;;;;;;4903044;29;21048;-79
2022/01/18 04:54:09;;;;;;;29.27;5.95;;;;;;;;;;4924455;29;20894;-79
2022/01/18 04:59:03;;;;;;;24.10;6.18;;;;;;;;;;4940446;29;21085;-79
2022/01/18 05:01:29;;;;;;;26.13;5.90;;;;;;;;;;4923196;29;20435;-79
2022/01/18 05:03:55;;;;;;;24.90;5.70;;;;;;;;;;4909891;29;20431;-78
2022/01/18 05:06:21;;;;;;;24.13;6.15;;;;;;;;;;4906400;29;20444;-79
2022/01/18 05:08:47;;;;;;;25.83;5.82;;;;;;;;;;4924253;29;21055;-78
2022/01/18 05:11:16;;;;;;;28.58;7.45;;;;;;;;;;4920696;29;20439;-79
2022/01/18 05:14:16;;;;;;;30.77;6.30;;;;;;;;;;4923733;29;20437;-79
2022/01/18 05:16:53;;;;;;;26.98;5.45;;;;;;;;;;4918440;29;20444;-79
2022/01/18 05:19:28;;;;;;;27.63;5.90;;;;;;;;;;4917667;29;20848;-79
2022/01/18 05:24:24;;;;;;;25.25;6.38;;;;;;;;;;4924486;29;20420;-78
2022/01/18 05:26:51;;;;;;;25.67;5.90;;;;;;;;;;4939473;29;20448;-79
2022/01/18 05:29:17;;;;;;;24.52;5.63;;;;;;;;;;4923410;29;20443;-78
2022/01/18 05:31:44;;;;;;;24.73;6.07;;;;;;;;;;4923210;29;20436;-78
2022/01/18 05:34:10;;;;;;;26.92;6.50;;;;;;;;;;4922770;29;20526;-78
2022/01/18 05:36:36;;;;;;;24.73;5.73;;;;;;;;;;4924263;29;20815;-78
2022/01/18 05:39:03;;;;;;;26.33;6.18;;;;;;;;;;4923655;29;20479;-78
2022/01/18 05:41:29;;;;;;;24.55;5.75;;;;;;;;;;4905534;29;20444;-79
2022/01/18 05:43:55;;;;;;;20.65;6.22;;;;;;;;;;4905028;29;20442;-79
2022/01/18 05:46:21;;;;;;;31.35;7.53;;;;;;;;;;4908529;29;20424;-79
2022/01/18 05:48:47;;;;;;;24.30;6.03;;;;;;;;;;4907413;29;20435;-79
2022/01/18 05:51:14;;;;;;;23.23;5.97;;;;;;;;;;4898889;29;20534;-79
2022/01/18 05:53:41;;;;;;;23.55;6.13;;;;;;;;;;4924101;29;20463;-79
2022/01/18 05:56:11;;;;;;;19.00;5.23;;;;;;;;;;4947877;28;20455;-78
2022/01/18 05:58:37;;;;;;;18.30;5.63;;;;;;;;;;4922053;29;20471;-79
2022/01/18 06:01:03;;;;;;;23.63;5.50;;;;;;;;;;4922702;29;20605;-78
2022/01/18 06:03:38;;;;;;;22.38;5.88;;;;;;;;;;4905380;29;20482;-79
2022/01/18 06:08:49;;;;;;;19.45;5.70;;;;;;;;;;4932766;29;20439;-79
2022/01/18 06:11:15;;;;;;;19.48;5.50;;;;;;;;;;4936737;29;20450;-78
2022/01/18 06:13:41;;;;;;;16.30;5.10;;;;;;;;;;4940015;29;20471;-79
2022/01/18 06:16:07;;;;;;;19.55;5.32;;;;;;;;;;4936769;29;20482;-79
2022/01/18 06:18:33;;;;;;;20.33;5.22;;;;;;;;;;4923193;29;20547;-79
2022/01/18 06:20:59;;;;;;;17.63;4.82;;;;;;;;;;4932389;29;20446;-79
2022/01/18 06:23:26;;;;;;;18.27;6.18;;;;;;;;;;4920963;29;20885;-79
2022/01/18 06:25:52;;;;;;;25.40;7.22;;;;;;;;;;4923354;29;20431;-79
2022/01/18 06:28:18;;;;;;;19.25;5.85;;;;;;;;;;4951709;28;20614;-80
2022/01/18 06:30:45;;;;;;;23.70;5.72;;;;;;;;;;4938938;29;20580;-80
2022/01/18 06:33:11;;;;;;;23.13;6.78;;;;;;;;;;4918662;29;20830;-79
2022/01/18 06:35:37;;;;;;;22.93;6.37;;;;;;;;;;4920992;29;20447;-79
2022/01/18 06:38:03;;;;;;;21.48;6.20;;;;;;;;;;4906227;29;20483;-79
2022/01/18 06:40:29;;;;;;;19.45;5.55;;;;;;;;;;4901217;29;20445;-79
2022/01/18 06:42:55;;;;;;;24.02;6.20;;;;;;;;;;4938208;29;20455;-78
2022/01/18 06:45:21;;;;;;;19.08;5.97;;;;;;;;;;4901004;29;20928;-79
2022/01/18 06:47:47;;;;;;;20.92;8.68;;;;;;;;;;4920873;29;20439;-80
2022/01/18 06:50:13;;;;;;;22.42;6.10;;;;;;;;;;4887616;29;20498;-77
2022/01/18 06:52:40;;;;;;;19.63;6.17;;;;;;;;;;4947332;29;20706;-78
2022/01/18 06:55:07;;;;;;;16.88;5.20;;;;;;;;;;4921833;29;20451;-79
2022/01/18 06:57:33;;;;;;;22.80;6.25;;;;;;;;;;4915688;29;20442;-78
2022/01/18 06:59:59;;;;;;;23.40;6.07;;;;;;;;;;4921521;29;20435;-78
2022/01/18 07:02:25;;;;;;;21.42;6.40;;;;;;;;;;4905727;29;20555;-78
2022/01/18 07:04:51;;;;;;;23.85;7.93;;;;;;;;;;4952209;28;20490;-78
2022/01/18 07:07:18;;;;;;;24.08;6.15;;;;;;;;;;4905721;29;20495;-78
2022/01/18 07:09:44;;;;;;;17.63;4.85;;;;;;;;;;4937371;29;20434;-80
2022/01/18 07:12:11;;;;;;;17.85;6.07;;;;;;;;;;4907092;29;20499;-78
2022/01/18 07:14:38;;;;;;;18.83;5.50;;;;;;;;;;4907149;29;20427;-79
2022/01/18 07:17:04;;;;;;;20.95;5.90;;;;;;;;;;4904956;29;20475;-80
2022/01/18 07:19:32;;;;;;;19.33;5.80;;;;;;;;;;4902363;29;20464;-79
2022/01/18 07:21:58;;;;;;;20.20;6.03;;;;;;;;;;4919678;29;20467;-79
2022/01/18 07:24:37;;;;;;;18.45;5.57;;;;;;;;;;4922339;29;20450;-78
2022/01/18 07:27:04;;;;;;;18.98;5.90;;;;;;;;;;4920569;29;20436;-79
2022/01/18 07:29:30;;;;;;;18.55;5.40;;;;;;;;;;4912043;29;20499;-79
2022/01/18 07:31:56;;;;;;;19.20;5.47;;;;;;;;;;4905367;29;20446;-79
2022/01/18 07:34:22;;;;;;;18.20;5.50;;;;;;;;;;4892099;29;20490;-79
2022/01/18 07:36:48;;;;;;;19.10;5.70;;;;;;;;;;4921049;29;20439;-80
2022/01/18 07:39:15;;;;;;;18.70;5.57;;;;;;;;;;4922422;29;20956;-79
2022/01/18 07:41:41;;;;;;;19.15;5.47;;;;;;;;;;4936092;29;20447;-78
2022/01/18 07:44:07;;;;;;;18.85;5.35;;;;;;;;;;4895871;29;20432;-79
2022/01/18 07:46:33;;;;;;;13.75;5.00;;;;;;;;;;4902600;29;20465;-79
2022/01/18 07:48:59;;;;;;;22.03;7.10;;;;;;;;;;4922056;29;20528;-79
2022/01/18 07:51:25;;;;;;;23.83;5.97;;;;;;;;;;4913083;29;20510;-79
2022/01/18 07:53:51;;;;;;;21.10;5.55;;;;;;;;;;4905965;29;20443;-79
2022/01/18 07:56:17;;;;;;;18.35;5.60;;;;;;;;;;4897293;29;20452;-81
2022/01/18 07:58:45;;;;;;;21.33;5.50;;;;;;;;;;4917326;29;20426;-78
2022/01/18 08:01:11;;;;;;;21.60;4.93;;;;;;;;;;4917262;29;20463;-79
2022/01/18 08:03:37;;;;;;;19.23;5.25;;;;;;;;;;4936242;29;20443;-80
2022/01/18 08:06:03;;;;;;;21.88;5.38;;;;;;;;;;4907520;29;20435;-79
2022/01/18 08:08:29;;;;;;;20.98;5.68;;;;;;;;;;4902544;29;20444;-79
2022/01/18 08:10:55;;;;;;;20.70;6.28;;;;;;;;;;4920192;29;20539;-80
2022/01/18 08:13:29;;;;;;;19.50;6.22;;;;;;;;;;4936562;29;20442;-80
2022/01/18 08:16:11;;;;;;;20.27;7.13;;;;;;;;;;4920196;29;20890;-80
2022/01/18 08:18:37;;;;;;;26.38;7.85;;;;;;;;;;4921551;29;20451;-80
2022/01/18 08:21:04;;;;;;;21.15;7.93;;;;;;;;;;4921996;29;20427;-80
2022/01/18 08:23:30;;;;;;;20.58;7.80;;;;;;;;;;4924108;29;20447;-79
2022/01/18 08:25:56;;;;;;;27.98;8.25;;;;;;;;;;4907037;29;20429;-79
2022/01/18 08:28:22;;;;;;;29.92;8.73;;;;;;;;;;4950180;29;20507;-79
2022/01/18 08:30:48;;;;;;;29.08;8.88;;;;;;;;;;4907231;29;20432;-81
2022/01/18 08:33:14;;;;;;;30.75;8.95;;;;;;;;;;4901120;29;20437;-82
2022/01/18 08:35:40;;;;;;;27.50;8.82;;;;;;;;;;4923121;29;20450;-82
2022/01/18 08:38:06;;;;;;;27.90;8.90;;;;;;;;;;4941605;29;20545;-82
2022/01/18 08:40:33;;;;;;;32.53;10.75;;;;;;;;;;4909052;29;20439;-80
2022/01/18 08:42:59;;;;;;;26.02;9.90;;;;;;;;;;4912118;29;20448;-81
2022/01/18 08:45:25;;;;;;;27.73;9.82;;;;;;;;;;4920899;29;20455;-80
2022/01/18 08:47:51;;;;;;;30.63;11.48;;;;;;;;;;4941464;29;20429;-81
2022/01/18 08:50:19;;;;;;;32.70;11.93;;;;;;;;;;4919238;29;20450;-81
2022/01/18 08:52:48;;;;;;;30.93;10.67;;;;;;;;;;4953404;28;20451;-80
2022/01/18 08:55:14;;;;;;;30.20;9.87;;;;;;;;;;4922099;29;20443;-77
2022/01/18 08:57:40;;;;;;;28.85;9.98;;;;;;;;;;4936998;29;20514;-79
2022/01/18 09:00:08;;;;;;;26.83;10.02;;;;;;;;;;4900448;29;20444;-79
2022/01/18 09:02:34;;;;;;;29.55;9.65;;;;;;;;;;4907476;29;20439;-79
2022/01/18 09:05:00;;;;;;;23.23;8.88;;;;;;;;;;4892322;29;20490;-81
2022/01/18 09:07:27;;;;;;;25.48;9.13;;;;;;;;;;4906153;29;20425;-75
2022/01/18 09:10:02;;;;;;;28.95;9.07;;;;;;;;;;4906966;29;20474;-80
2022/01/18 09:12:28;;;;;;;33.00;10.45;;;;;;;;;;4913130;29;20446;-78
2022/01/18 09:14:55;;;;;;;29.52;9.07;;;;;;;;;;4923012;29;20509;-81
2022/01/18 09:17:21;;;;;;;29.13;8.75;;;;;;;;;;4912142;29;20446;-80
2022/01/18 09:19:47;;;;;;;26.80;8.55;;;;;;;;;;4908245;29;20431;-81
2022/01/18 09:22:14;;;;;;;29.88;11.20;;;;;;;;;;4938974;29;20462;-80
2022/01/18 09:24:40;;;;;;;26.57;8.33;;;;;;;;;;4914311;29;20471;-82
2022/01/18 09:27:06;;;;;;;26.42;8.60;;;;;;;;;;4938749;29;20447;-82
2022/01/18 09:29:33;;;;;;;31.08;9.60;;;;;;;;;;4908780;29;20467;-81
2022/01/18 09:31:59;;;;;;;24.70;10.00;;;;;;;;;;4907537;29;20427;-80
2022/01/18 09:34:25;;;;;;;24.23;8.05;;;;;;;;;;4929624;29;20495;-80
2022/01/18 09:36:51;;;;;;;26.45;7.93;;;;;;;;;;4924090;29;20443;-81
2022/01/18 09:39:18;;;;;;;22.33;7.75;;;;;;;;;;4937165;29;20511;-84
2022/01/18 09:41:48;;;;;;;24.63;7.82;;;;;;;;;;4921457;29;20441;-85
2022/01/18 09:44:14;;;;;;;16.95;6.72;;;;;;;;;;4922233;29;20419;-83
2022/01/18 09:46:40;;;;;;;23.20;8.10;;;;;;;;;;4923582;29;20450;-81
2022/01/18 09:49:08;;;;;;;34.15;9.77;;;;;;;;;;4906047;29;20471;-79
2022/01/18 09:51:34;;;;;;;20.30;6.43;;;;;;;;;;4922240;29;20428;-76
2022/01/18 09:54:01;;;;;;;20.48;6.43;;;;;;;;;;4939193;29;20431;-76
2022/01/18 09:56:27;;;;;;;18.67;6.75;;;;;;;;;;4938480;29;20439;-77
2022/01/18 09:58:53;;;;;;;18.33;6.15;;;;;;;;;;4923424;29;20463;-77
2022/01/18 10:01:19;;;;;;;20.00;6.13;;;;;;;;;;4924320;29;20467;-77
2022/01/18 10:03:45;;;;;;;18.13;6.07;;;;;;;;;;4906571;29;20462;-76
2022/01/18 10:06:11;;;;;;;14.68;4.35;;;;;;;;;;4907116;29;20435;-76
2022/01/18 10:08:39;;;;;;;13.40;4.35;;;;;;;;;;4908530;29;20475;-75
2022/01/18 10:11:10;;;;;;;18.30;4.70;;;;;;;;;;4907102;29;20467;-77
2022/01/18 10:13:37;;;;;;;15.88;4.22;;;;;;;;;;4907932;29;20450;-76
2022/01/18 10:16:07;;;;;;;18.02;4.63;;;;;;;;;;4917486;29;20448;-76
2022/01/18 10:18:38;;;;;;;12.73;4.18;;;;;;;;;;4906033;29;20435;-77
2022/01/18 10:21:06;;;;;;;14.68;3.92;;;;;;;;;;4908276;29;20535;-77
2022/01/18 10:23:33;;;;;;;11.77;3.95;;;;;;;;;;4906910;29;20456;-79
2022/01/18 10:26:14;;;;;;;10.90;3.80;;;;;;;;;;4908830;29;20435;-78
2022/01/18 10:28:40;;;;;;;11.23;3.65;;;;;;;;;;4931796;29;20541;-78
2022/01/18 10:31:23;;;;;;;14.63;3.42;;;;;;;;;;4907436;29;20510;-78
2022/01/18 10:34:09;;;;;;;12.70;4.05;;;;;;;;;;4906268;29;20508;-76
2022/01/18 10:36:35;;;;;;;11.18;3.70;;;;;;;;;;4886948;29;20449;-77
2022/01/18 10:39:03;;;;;;;12.70;3.50;;;;;;;;;;4908571;29;20416;-78
2022/01/18 10:41:34;;;;;;;15.23;4.00;;;;;;;;;;4904106;29;21108;-78
2022/01/18 10:44:04;;;;;;;11.07;3.70;;;;;;;;;;4937312;29;20474;-79
2022/01/18 10:46:38;;;;;;;10.60;3.85;;;;;;;;;;4903121;29;20460;-80
2022/01/18 10:49:04;;;;;;;9.45;4.72;;;;;;;;;;4903766;29;20451;-80
2022/01/18 10:51:32;;;;;;;8.60;3.58;;;;;;;;;;4906585;29;20443;-80
2022/01/18 10:53:59;;;;;;;12.15;4.57;;;;;;;;;;4922400;29;20446;-81
2022/01/18 10:56:57;;;;;;;14.80;4.50;;;;;;;;;;4918735;29;20514;-80
2022/01/18 10:59:24;;;;;;;11.27;3.80;;;;;;;;;;4926951;29;20453;-81
2022/01/18 11:02:10;;;;;;;13.98;4.45;;;;;;;;;;4921271;29;20451;-82
2022/01/18 11:04:38;;;;;;;14.05;4.30;;;;;;;;;;4934805;29;20458;-83
2022/01/18 11:07:05;;;;;;;11.60;4.13;;;;;;;;;;4939270;29;20742;-82
2022/01/18 11:09:35;;;;;;;13.07;4.47;;;;;;;;;;4924696;29;20430;-81
2022/01/18 11:12:01;;;;;;;13.73;4.47;;;;;;;;;;4917728;29;20431;-83
2022/01/18 11:14:29;;;;;;;14.70;5.60;;;;;;;;;;4922926;29;20424;-78
2022/01/18 11:16:57;;;;;;;12.65;4.72;;;;;;;;;;4936951;29;20435;-79
2022/01/18 11:21:51;;;;;;;15.07;5.28;;;;;;;;;;4935124;29;20443;-80
2022/01/18 11:24:18;;;;;;;13.90;5.33;;;;;;;;;;4921788;29;20534;-77
2022/01/18 11:26:45;;;;;;;17.30;5.90;;;;;;;;;;4922470;29;20489;-78
2022/01/18 11:29:12;;;;;;;16.00;5.05;;;;;;;;;;4938531;29;20438;-78
2022/01/18 11:31:38;;;;;;;14.20;5.15;;;;;;;;;;4919840;29;20435;-79
2022/01/18 11:34:06;;;;;;;16.38;5.60;;;;;;;;;;4937699;29;20499;-78
2022/01/18 11:36:35;;;;;;;16.23;5.45;;;;;;;;;;4921894;29;20450;-77
2022/01/18 11:39:04;;;;;;;14.30;5.18;;;;;;;;;;4936440;29;20431;-80
2022/01/18 11:41:32;;;;;;;15.02;5.90;;;;;;;;;;4931230;29;20429;-80
2022/01/18 11:44:01;;;;;;;16.08;5.50;;;;;;;;;;4920332;29;20439;-80
2022/01/18 11:46:31;;;;;;;17.65;5.72;;;;;;;;;;4920100;29;20431;-79
2022/01/18 11:49:08;;;;;;;19.42;7.35;;;;;;;;;;4939578;29;20464;-80
2022/01/18 11:51:49;;;;;;;18.10;6.10;;;;;;;;;;4934686;29;20965;-79
2022/01/18 11:54:28;;;;;;;14.52;6.13;;;;;;;;;;4921793;29;20440;-79
2022/01/18 11:56:57;;;;;;;15.80;6.32;;;;;;;;;;4946615;29;20457;-78
2022/01/18 11:59:44;;;;;;;15.32;6.43;;;;;;;;;;4965809;28;20439;-77
2022/01/18 12:02:11;;;;;;;17.00;6.70;;;;;;;;;;4930179;29;20448;-78
2022/01/18 12:07:11;;;;;;;16.80;6.47;;;;;;;;;;4940153;29;20440;-79
2022/01/18 12:09:48;;;;;;;19.60;6.57;;;;;;;;;;4938231;29;20439;-80
2022/01/18 12:12:33;;;;;;;16.90;6.05;;;;;;;;;;4940397;29;20442;-79
2022/01/18 12:14:59;;;;;;;15.13;6.20;;;;;;;;;;4939781;29;20451;-79
2022/01/18 12:17:25;;;;;;;14.32;6.38;;;;;;;;;;4911544;29;20576;-79
2022/01/18 12:19:51;;;;;;;14.77;5.75;;;;;;;;;;4940650;29;21134;-79
2022/01/18 12:22:17;;;;;;;17.42;6.60;;;;;;;;;;4917225;29;20472;-79
2022/01/18 12:24:47;;;;;;;18.27;7.20;;;;;;;;;;4939941;29;20427;-79
2022/01/18 12:27:31;;;;;;;16.30;6.88;;;;;;;;;;4922215;29;20448;-78
2022/01/18 12:30:38;;;;;;;18.15;6.93;;;;;;;;;;4931786;29;20435;-78
2022/01/18 12:33:18;;;;;;;20.23;6.97;;;;;;;;;;4936236;29;20487;-78
2022/01/18 12:35:45;;;;;;;19.23;6.90;;;;;;;;;;4922961;29;20447;-78
2022/01/18 12:38:21;;;;;;;19.00;7.40;;;;;;;;;;4941951;29;20427;-78
2022/01/18 12:40:47;;;;;;;18.35;8.13;;;;;;;;;;4914306;29;20503;-78
2022/01/18 12:45:42;;;;;;;17.33;7.18;;;;;;;;;;4941465;29;20432;-78
2022/01/18 12:48:10;;;;;;;16.08;6.70;;;;;;;;;;4933148;29;20439;-78
2022/01/18 12:50:37;;;;;;;17.30;7.30;;;;;;;;;;4920107;29;20453;-79
2022/01/18 12:53:05;;;;;;;18.25;7.50;;;;;;;;;;4933520;29;20443;-79
2022/01/18 12:55:42;;;;;;;17.13;7.40;;;;;;;;;;4942457;29;20434;-78
2022/01/18 12:58:10;;;;;;;17.15;7.20;;;;;;;;;;4935138;29;20525;-78
2022/01/18 13:00:46;;;;;;;15.93;7.20;;;;;;;;;;4913348;29;20835;-79
2022/01/18 13:03:26;;;;;;;16.55;7.18;;;;;;;;;;4913173;29;20439;-78
2022/01/18 13:05:54;;;;;;;20.23;7.40;;;;;;;;;;4927708;29;20469;-78
2022/01/18 13:08:21;;;;;;;19.67;7.40;;;;;;;;;;4940842;29;20435;-77
2022/01/18 13:10:50;;;;;;;18.58;7.43;;;;;;;;;;4927232;29;20431;-77
2022/01/18 13:13:19;;;;;;;17.63;7.18;;;;;;;;;;4939975;29;20442;-78
2022/01/18 13:26:29;;;;;;;15.77;6.80;;;;;;;;;;4940007;29;20423;-78
2022/01/18 13:28:56;;;;;;;17.50;6.90;;;;;;;;;;4922208;29;20864;-77
2022/01/18 13:31:25;;;;;;;18.73;7.95;;;;;;;;;;4908690;29;20431;-77
2022/01/18 13:34:00;;;;;;;18.58;7.28;;;;;;;;;;4920226;29;20441;-78
2022/01/18 13:36:29;;;;;;;19.88;8.38;;;;;;;;;;4935157;29;21112;-78
2022/01/18 13:38:55;;;;;;;19.43;7.37;;;;;;;;;;4937797;29;20501;-77
2022/01/18 13:41:24;;;;;;;15.60;7.50;;;;;;;;;;4938752;29;20503;-77
2022/01/18 13:43:50;;;;;;;20.65;8.07;;;;;;;;;;4922571;29;20429;-78
2022/01/18 13:46:26;;;;;;;18.65;8.30;;;;;;;;;;4937568;29;20430;-78
2022/01/18 13:49:09;;;;;;;19.95;7.68;;;;;;;;;;4937763;29;20447;-79
2022/01/18 13:51:36;;;;;;;15.38;6.50;;;;;;;;;;4926397;29;20777;-77
2022/01/18 13:54:05;;;;;;;20.00;6.68;;;;;;;;;;4936057;29;20566;-78
2022/01/18 13:56:31;;;;;;;17.27;7.47;;;;;;;;;;4937111;29;20431;-79
2022/01/18 13:59:05;;;;;;;17.95;7.38;;;;;;;;;;4920353;29;20435;-77
2022/01/18 14:01:41;;;;;;;16.15;6.47;;;7.60;99.90;;;;;;4917233;29;20431;-78
2022/01/18 14:04:18;;;;;;;18.35;6.53;;;;;;;;;;4936493;29;20439;-78
2022/01/18 14:06:45;;;;;;;18.17;6.20;;;;;;;;;;4921510;29;20471;-78
2022/01/18 14:09:12;;;;;;;15.57;6.53;;;;;;;;;;4918960;29;20432;-77
2022/01/18 14:11:39;;;;;;;18.33;6.90;;;;;;;;;;4919407;29;20467;-77
2022/01/18 14:14:18;;;;;;;19.55;7.22;;;;;;;;;;4919560;29;20427;-77
2022/01/18 14:16:55;;;;;;;21.07;7.37;;;;;;;;;;4911836;29;20443;-77
2022/01/18 14:19:29;;;;;;;20.55;6.95;;;;;;;;;;4915599;29;20443;-76
2022/01/18 14:21:56;;;;;;;17.67;6.80;;;;;;;;;;4934240;29;20801;-76
2022/01/18 14:24:34;;;;;;;20.95;7.28;;;;;;;;;;4934149;29;20435;-77
2022/01/18 14:27:02;;;;;;;18.05;7.53;;;;;;;;;;4916725;29;20443;-76
2022/01/18 14:29:47;;;;;;;19.95;7.65;;;;;;;;;;4935375;29;20439;-76
2022/01/18 14:32:14;;;;;;;23.45;8.45;;;;;;;;;;4937501;29;20451;-77
2022/01/18 14:34:42;;;;;;;20.45;8.60;;;;;;;;;;4937790;29;20446;-77
2022/01/18 14:37:08;;;;;;;20.07;8.70;;;;;;;;;;4935252;29;20507;-76
2022/01/18 14:40:00;;;;;;;25.52;9.32;;;7.00;99.90;;;;;;4936567;29;20447;-77
2022/01/18 14:42:31;;;;;;;24.30;9.35;;;;;;;;;;4935263;29;20432;-77
2022/01/18 14:45:19;;;;;;;23.23;10.10;;;;;;;;;;4919593;29;20451;-76
2022/01/18 14:47:45;;;;;;;28.85;11.05;;;;;;;;;;4936630;29;20463;-77
2022/01/18 14:50:13;;;;;;;22.48;11.10;;;;;;;;;;4916740;29;20432;-76
2022/01/18 14:52:39;;;;;;;31.50;13.27;;;;;;;;;;4917685;29;20429;-77
2022/01/18 14:55:06;;;;;;;30.53;13.07;;;;;;;;;;4920601;29;20857;-76
2022/01/18 14:57:32;;;;;;;31.90;13.50;;;;;;;;;;4930531;29;20439;-77
2022/01/18 14:59:59;;;;;;;31.35;13.90;;;6.70;99.90;;;;;;4928092;29;20520;-76
2022/01/18 15:02:25;;;;;;;34.43;14.73;;;;;;;;;;4901881;29;20478;-76
2022/01/18 15:04:52;;;;;;;34.33;16.00;;;;;;;;;;4935079;29;20446;-76
2022/01/18 15:07:18;;;;;;;36.93;16.03;;;;;;;;;;4895872;29;20425;-75
2022/01/18 15:09:44;;;;;;;41.28;16.50;;;;;;;;;;4931625;29;20449;-76
2022/01/18 15:12:10;;;;;;;34.88;16.23;;;;;;;;;;4932005;29;20437;-75
2022/01/18 15:14:36;;;;;;;44.33;17.45;;;;;;;;;;4931833;29;20458;-76
2022/01/18 15:17:03;;;;;;;45.60;19.25;;;;;;;;;;4931240;29;20539;-77
2022/01/18 15:19:30;;;;;;;46.50;19.47;;;;;;;;;;4928444;29;20440;-77
2022/01/18 15:21:56;;;;;;;47.40;19.05;;;;;;;;;;4947282;28;20427;-75
2022/01/18 15:24:23;;;;;;;50.72;19.67;;;;;;;;;;4938184;29;20447;-76
2022/01/18 15:26:49;;;;;;;42.00;19.73;;;;;;;;;;4920260;29;20446;-78
2022/01/18 15:29:16;;;;;;;40.45;19.05;;;;;;;;;;4934922;29;20436;-77
2022/01/18 15:31:42;;;;;;;54.55;20.63;;;;;;;;;;4935260;29;20442;-77
2022/01/18 15:34:08;;;;;;;46.67;19.85;;;;;;;;;;4919398;29;20517;-77
2022/01/18 15:36:34;;;;;;;46.93;20.37;;;;;;;;;;4930538;29;20443;-77
2022/01/18 15:39:00;;;;;;;45.30;20.42;;;;;;;;;;4899863;29;20446;-77
2022/01/18 15:41:26;;;;;;;49.67;21.97;;;;;;;;;;4915353;29;20432;-76
2022/01/18 15:43:52;;;;;;;52.95;23.77;;;;;;;;;;4912861;29;20442;-77
2022/01/18 15:46:18;;;;;;;55.35;23.23;;;;;;;;;;4935203;29;20781;-77
2022/01/18 15:48:45;;;;;;;52.03;23.30;;;;;;;;;;4937838;29;20436;-77
2022/01/18 15:51:11;;;;;;;53.70;22.53;;;;;;;;;;4905263;29;20480;-74
2022/01/18 15:53:37;;;;;;;55.25;22.77;;;;;;;;;;4917074;29;20527;-77
2022/01/18 15:56:03;;;;;;;67.45;23.55;;;;;;;;;;4915321;29;20423;-77